| time (UTC) | temp C | wind direction | speed KPH | gust KPH | rain 1hr cm | rain 24hr cm | rain mn cm | humidity % | barometer mb |
| 20260504081557 | 11 | 167 | 9.7 | 14.5 | 0.00 | 0.00 | 0.00 | 89 | 1006.4 |
| 20260504044530 | 12 | 150 | 8.0 | 12.9 | 0.00 | 0.00 | 0.00 | 81 | 1008.1 |
| 20260504043030 | 12 | 178 | 4.8 | 12.9 | 0.00 | 0.00 | 0.00 | 80 | 1008.2 |
| 20260504041529 | 12 | 200 | 4.8 | 11.3 | 0.00 | 0.00 | 0.00 | 79 | 1008.4 |
| 20260504040028 | 13 | 175 | 6.4 | 11.3 | 0.00 | 0.00 | 0.00 | 76 | 1008.3 |
| 20260504034533 | 13 | 215 | 6.4 | 12.9 | 0.00 | 0.00 | 0.00 | 75 | 1008.3 |
| 20260504033044 | 13 | 169 | 6.4 | 12.9 | 0.00 | 0.00 | 0.00 | 75 | 1008.5 |
| 20260504031531 | 13 | 167 | 4.8 | 11.3 | 0.00 | 0.00 | 0.00 | 75 | 1008.6 |
| 20260504030027 | 13 | 178 | 8.0 | 12.9 | 0.00 | 0.00 | 0.00 | 74 | 1008.4 |
| 20260504024541 | 13 | 205 | 6.4 | 11.3 | 0.00 | 0.00 | 0.00 | 74 | 1008.5 |
| 20260504023026 | 14 | 182 | 6.4 | 11.3 | 0.00 | 0.00 | 0.00 | 71 | 1008.7 |
| 20260504021525 | 15 | 189 | 4.8 | 8.0 | 0.00 | 0.00 | 0.00 | 67 | 1008.6 |
| 20260504020025 | 16 | 209 | 3.2 | 6.4 | 0.00 | 0.00 | 0.00 | 66 | 1008.4 |
| 20260504014524 | 15 | 198 | 3.2 | 8.0 | 0.00 | 0.00 | 0.00 | 68 | 1008.4 |
| 20260504013024 | 16 | 220 | 1.6 | 6.4 | 0.00 | 0.00 | 0.00 | 65 | 1008.4 |
| 20260504011524 | 17 | 225 | 3.2 | 8.0 | 0.00 | 0.00 | 0.00 | 60 | 1008.2 |
| 20260504010027 | 17 | 259 | 3.2 | 6.4 | 0.00 | 0.00 | 0.00 | 60 | 1008.2 |
| 20260504004537 | 17 | 259 | 3.2 | 4.8 | 0.00 | 0.00 | 0.00 | 60 | 1008.1 |
| 20260504003022 | 17 | 277 | 0.0 | 6.4 | 0.00 | 0.00 | 0.00 | 60 | 1008.0 |
| 20260504001522 | 18 | 242 | 6.4 | 12.9 | 0.00 | 0.00 | 0.00 | 58 | 1007.9 |
| 20260504000021 | 18 | 256 | 4.8 | 12.9 | 0.00 | 0.00 | 0.00 | 57 | 1008.0 |
| 20260503234521 | 18 | 255 | 4.8 | 14.5 | 0.00 | 0.00 | 0.00 | 55 | 1008.0 |
| 20260503233024 | 19 | 272 | 4.8 | 19.3 | 0.00 | 0.00 | 0.00 | 52 | 1008.2 |
| 20260503231520 | 20 | 215 | 17.7 | 30.6 | 0.00 | 0.00 | 0.00 | 49 | 1007.9 |
| 20260503230017 | 19 | 229 | 14.5 | 27.4 | 0.00 | 0.00 | 0.00 | 49 | 1007.9 |
| 20260503224515 | 19 | 231 | 14.5 | 32.2 | 0.00 | 0.00 | 0.00 | 49 | 1008.1 |
| 20260503223014 | 19 | 209 | 20.9 | 43.5 | 0.00 | 0.00 | 0.00 | 49 | 1008.0 |
| 20260503221512 | 18 | 214 | 19.3 | 32.2 | 0.00 | 0.00 | 0.00 | 48 | 1008.3 |
| 20260503220014 | 18 | 231 | 14.5 | 35.4 | 0.00 | 0.00 | 0.00 | 50 | 1008.2 |
| 20260503214508 | 18 | 211 | 20.9 | 46.7 | 0.00 | 0.00 | 0.00 | 50 | 1007.9 |
| 20260503213008 | 17 | 220 | 24.1 | 40.2 | 0.00 | 0.00 | 0.00 | 52 | 1008.2 |
| 20260503211506 | 17 | 163 | 24.1 | 38.6 | 0.00 | 0.00 | 0.00 | 51 | 1008.3 |
| 20260503210005 | 17 | 173 | 29.0 | 45.1 | 0.00 | 0.00 | 0.00 | 55 | 1008.1 |
| 20260503204502 | 17 | 213 | 22.5 | 40.2 | 0.00 | 0.00 | 0.00 | 52 | 1008.9 |
| 20260503203004 | 17 | 180 | 32.2 | 61.2 | 0.00 | 0.00 | 0.00 | 51 | 1008.6 |
| 20260503201559 | 17 | 196 | 29.0 | 45.1 | 0.00 | 0.00 | 0.00 | 51 | 1009.4 |
| 20260503200058 | 17 | 184 | 35.4 | 56.3 | 0.00 | 0.00 | 0.00 | 50 | 1009.4 |
| 20260503194555 | 16 | 212 | 35.4 | 61.2 | 0.00 | 0.00 | 0.00 | 53 | 1010.0 |
| 20260503193058 | 16 | 155 | 38.6 | 56.3 | 0.00 | 0.00 | 0.00 | 51 | 1009.8 |
| 20260503191555 | 16 | 198 | 33.8 | 57.9 | 0.00 | 0.00 | 0.00 | 50 | 1009.6 |
| 20260503190058 | 16 | 173 | 35.4 | 57.9 | 0.00 | 0.00 | 0.00 | 50 | 1010.2 |
| 20260503184601 | 16 | 163 | 27.4 | 48.3 | 0.00 | 0.00 | 0.00 | 51 | 1010.6 |
| 20260503183045 | 16 | 159 | 24.1 | 46.7 | 0.00 | 0.00 | 0.00 | 53 | 1011.4 |
| 20260503181542 | 16 | 207 | 30.6 | 46.7 | 0.00 | 0.00 | 0.00 | 53 | 1012.4 |
| 20260503180037 | 15 | 193 | 20.9 | 41.8 | 0.00 | 0.00 | 0.00 | 54 | 1013.0 |
| 20260503174554 | 15 | 177 | 19.3 | 37.0 | 0.00 | 0.00 | 0.00 | 55 | 1013.5 |
| 20260503173034 | 15 | 205 | 24.1 | 40.2 | 0.00 | 0.00 | 0.00 | 55 | 1013.7 |
| 20260503171533 | 15 | 198 | 22.5 | 41.8 | 0.00 | 0.00 | 0.00 | 55 | 1014.0 |